createdAt,value
2022-07-25T00:00:16.392Z,5.23
2022-07-25T00:05:40.964Z,5.00
2022-07-25T00:11:04.225Z,5.03
2022-07-25T00:16:30.147Z,4.97
2022-07-25T00:21:53.623Z,5.17
2022-07-25T00:27:17.252Z,4.90
2022-07-25T00:32:41.789Z,4.83
2022-07-25T00:38:05.353Z,5.40
2022-07-25T00:43:28.896Z,5.80
2022-07-25T00:48:53.711Z,5.77
2022-07-25T00:54:17.694Z,5.60
2022-07-25T00:59:41.285Z,5.00
2022-07-25T01:05:07.712Z,5.30
2022-07-25T01:10:34.485Z,5.93
2022-07-25T01:15:58.108Z,5.80
2022-07-25T01:21:24.828Z,5.67
2022-07-25T01:26:48.579Z,5.40
2022-07-25T01:32:13.244Z,5.77
2022-07-25T01:37:38.952Z,5.90
2022-07-25T01:43:02.376Z,5.30
2022-07-25T01:48:25.783Z,5.10
2022-07-25T01:53:51.041Z,5.30
2022-07-25T01:59:15.009Z,5.30
2022-07-25T02:04:38.646Z,4.90
2022-07-25T02:10:04.075Z,5.47
2022-07-25T02:15:28.055Z,5.57
2022-07-25T02:20:53.818Z,5.57
2022-07-25T02:26:19.083Z,6.20
2022-07-25T02:31:43.048Z,5.37
2022-07-25T02:37:09.708Z,5.87
2022-07-25T02:42:36.921Z,5.60
2022-07-25T02:48:00.480Z,5.50
2022-07-25T02:53:40.226Z,5.50
2022-07-25T02:59:08.939Z,5.53
2022-07-25T03:04:32.155Z,5.77
2022-07-25T03:09:56.158Z,5.63
2022-07-25T03:15:20.749Z,6.13
2022-07-25T03:20:44.125Z,5.60
2022-07-25T03:26:08.002Z,5.73
2022-07-25T03:31:32.888Z,5.40
2022-07-25T03:36:56.378Z,5.60
2022-07-25T04:37:49.045Z,5.30
2022-07-25T05:03:49.881Z,5.27
2022-07-25T05:57:36.839Z,5.07
2022-07-25T10:06:26.391Z,4.03
2022-07-25T10:26:26.226Z,3.10
2022-07-25T10:39:27.072Z,3.10
2022-07-25T10:45:38.076Z,3.22
2022-07-25T10:51:24.098Z,3.47
2022-07-25T10:57:05.828Z,3.70
2022-07-25T11:02:35.432Z,3.33
2022-07-25T11:08:21.160Z,3.47
2022-07-25T11:33:49.165Z,2.95
2022-07-25T11:39:50.462Z,2.90
2022-07-25T11:45:38.007Z,2.60
2022-07-25T11:51:42.750Z,2.78
2022-07-25T11:57:44.242Z,2.85
2022-07-25T12:08:55.313Z,2.65
2022-07-25T12:14:20.662Z,2.80
2022-07-25T12:19:48.282Z,2.78
2022-07-25T12:25:20.169Z,3.38
2022-07-25T12:30:58.512Z,4.18
2022-07-25T12:36:22.405Z,2.90
2022-07-25T12:41:54.408Z,2.95
2022-07-25T12:47:29.623Z,3.00
2022-07-25T12:52:53.382Z,3.05
2022-07-25T13:05:30.655Z,2.22
2022-07-25T13:10:57.764Z,2.38
2022-07-25T13:16:31.398Z,2.08
2022-07-25T13:22:00.405Z,2.40
2022-07-25T13:27:29.105Z,1.95
2022-07-25T13:32:56.480Z,2.30
2022-07-25T13:38:29.256Z,2.13
2022-07-25T13:44:04.560Z,2.40
2022-07-25T13:49:37.199Z,2.10
2022-07-25T13:55:41.341Z,1.83
2022-07-25T14:07:17.691Z,2.20
2022-07-25T14:12:45.494Z,2.10
2022-07-25T14:18:14.626Z,2.00
2022-07-25T14:24:05.427Z,2.53
2022-07-25T14:29:48.570Z,1.92
2022-07-25T14:56:12.023Z,2.22
2022-07-25T15:02:26.242Z,2.15
2022-07-25T15:07:58.203Z,2.45
2022-07-25T15:13:31.397Z,2.38
2022-07-25T15:19:48.654Z,2.15
2022-07-25T15:31:21.739Z,2.33
2022-07-25T15:36:49.333Z,1.77
2022-07-25T15:42:46.388Z,1.98
2022-07-25T15:48:31.213Z,2.08
2022-07-25T15:54:29.254Z,2.50
2022-07-25T16:06:04.576Z,2.20
2022-07-25T16:11:41.591Z,2.10
2022-07-25T16:17:17.264Z,2.35
2022-07-25T16:23:29.867Z,2.47
2022-07-25T16:36:03.081Z,1.77
2022-07-25T16:41:42.059Z,1.75
2022-07-25T16:47:05.757Z,2.05
2022-07-25T16:52:51.098Z,2.15
2022-07-25T16:58:14.625Z,2.00
2022-07-25T17:03:39.041Z,1.90
2022-07-25T17:09:11.948Z,2.03
2022-07-25T17:14:35.899Z,2.13
2022-07-25T17:20:00.173Z,2.10
2022-07-25T17:25:25.812Z,1.90
2022-07-25T17:30:49.325Z,1.85
2022-07-25T17:36:12.952Z,1.90
2022-07-25T17:41:38.033Z,1.67
2022-07-25T17:47:03.311Z,1.93
2022-07-25T17:52:26.737Z,1.30
2022-07-25T17:57:54.562Z,1.43
2022-07-25T18:03:19.734Z,1.30
2022-07-25T18:08:43.766Z,1.47
2022-07-25T18:14:09.195Z,1.23
2022-07-25T18:19:33.498Z,1.50
2022-07-25T18:24:57.534Z,1.30
2022-07-25T18:30:29.002Z,1.20
2022-07-25T18:35:53.247Z,1.50
2022-07-25T18:41:29.243Z,1.30
2022-07-25T18:47:00.085Z,1.30
2022-07-25T18:52:25.198Z,1.30
2022-07-25T18:57:49.151Z,1.30
2022-07-25T19:03:14.302Z,1.17
2022-07-25T19:22:47.362Z,0.97
2022-07-25T20:16:42.270Z,1.00
2022-07-25T20:23:10.443Z,1.13
2022-07-25T20:55:33.331Z,1.17
2022-07-25T21:07:59.458Z,1.10
2022-07-25T21:13:23.595Z,1.20
2022-07-25T21:18:48.639Z,0.80
2022-07-25T21:24:18.994Z,0.80
2022-07-25T21:29:43.935Z,1.07
2022-07-25T21:35:08.416Z,1.13
2022-07-25T21:40:34.630Z,1.27
2022-07-25T21:45:58.459Z,1.10
2022-07-25T21:51:24.487Z,0.80
2022-07-25T21:56:49.305Z,1.00
2022-07-25T22:02:13.528Z,0.93
2022-07-25T22:07:37.310Z,0.90
2022-07-25T22:13:04.241Z,0.90
2022-07-25T22:18:28.058Z,1.20
2022-07-25T22:23:53.187Z,1.03
2022-07-25T22:29:20.406Z,0.90
2022-07-25T22:34:43.925Z,1.00
2022-07-25T22:40:08.173Z,0.80
2022-07-25T22:45:34.381Z,1.00
2022-07-25T22:50:57.896Z,0.80
2022-07-25T22:56:21.965Z,1.10
2022-07-25T23:01:46.669Z,1.00
2022-07-25T23:07:09.880Z,1.30
2022-07-25T23:12:33.332Z,1.07
2022-07-25T23:17:57.933Z,1.33
2022-07-25T23:23:21.266Z,1.00
2022-07-25T23:28:44.950Z,1.00
2022-07-25T23:34:09.990Z,1.20
2022-07-25T23:39:33.681Z,1.60
2022-07-25T23:44:57.044Z,1.23
2022-07-25T23:50:25.510Z,1.07
2022-07-25T23:55:49.285Z,1.67
